Time;durP1;ratioP1;P1;durP2;ratioP2;P2;SDS_P1;SDS_P2;PMS_P1;PMS_P2;Temp;Humidity;BMP_temperature;BMP_pressure;BME280_temperature;BME280_humidity;BME280_pressure;Samples;Min_cycle;Max_cycle;Signal;HPM_P1;HPM_P2
2023/04/22 00:02:18;;;;;;;14.07;9.45;;;10.90;99.90;;;10.99;67.81;100289.78;5072449;28;20050;-76
2023/04/22 00:04:48;;;;;;;14.68;9.85;;;10.80;99.90;;;11.05;67.44;100297.06;5072308;28;20047;-75
2023/04/22 00:07:15;;;;;;;14.85;10.07;;;10.80;99.90;;;11.04;68.37;100291.84;5072524;28;20036;-75
2023/04/22 00:09:41;;;;;;;14.32;9.68;;;10.80;99.90;;;11.03;68.27;100296.44;5072515;28;20073;-76
2023/04/22 00:12:10;;;;;;;12.88;9.77;;;10.80;99.90;;;10.96;68.29;100275.75;5071592;28;20052;-75
2023/04/22 00:14:36;;;;;;;11.98;9.18;;;10.80;99.90;;;10.90;67.86;100255.69;5071849;28;20037;-75
2023/04/22 00:17:02;;;;;;;14.05;9.75;;;10.80;99.90;;;11.10;67.91;100279.16;5071891;28;20114;-75
2023/04/22 00:19:28;;;;;;;16.48;9.75;;;10.90;99.90;;;11.04;67.98;100267.28;5072479;28;20025;-75
2023/04/22 00:21:53;;;;;;;12.18;9.55;;;10.90;99.90;;;10.85;68.11;100270.00;5071804;28;20040;-76
2023/04/22 00:24:19;;;;;;;13.93;10.00;;;11.00;99.90;;;11.08;68.25;100263.84;5071505;28;20048;-75
2023/04/22 00:26:45;;;;;;;14.73;10.30;;;11.00;99.90;;;11.05;67.84;100255.28;5071964;28;20044;-75
2023/04/22 00:29:10;;;;;;;14.20;10.20;;;11.00;99.90;;;11.12;67.97;100260.63;5071050;28;20032;-75
2023/04/22 00:31:36;;;;;;;13.55;9.82;;;11.00;99.90;;;10.89;68.17;100248.56;5072397;28;20044;-75
2023/04/22 00:34:02;;;;;;;14.20;9.77;;;11.10;99.90;;;11.14;67.16;100247.59;5071214;28;20033;-75
2023/04/22 00:36:28;;;;;;;12.48;9.13;;;11.00;99.90;;;11.11;67.23;100232.53;5071985;28;20048;-74
2023/04/22 00:38:53;;;;;;;13.43;9.68;;;11.10;99.90;;;11.19;66.82;100245.03;5057883;28;20610;-75
2023/04/22 00:41:19;;;;;;;16.38;10.32;;;11.10;99.90;;;11.32;66.54;100244.00;5051026;28;20485;-75
2023/04/22 00:43:45;;;;;;;15.50;9.52;;;11.20;99.90;;;11.14;66.98;100221.13;5039197;28;20093;-75
2023/04/22 00:46:11;;;;;;;15.25;10.25;;;11.20;99.90;;;11.21;67.21;100240.16;5071916;28;20036;-75
2023/04/22 00:48:37;;;;;;;13.30;9.77;;;11.20;99.90;;;10.86;68.52;100251.72;5054402;28;20392;-75
2023/04/22 00:51:04;;;;;;;14.13;9.60;;;11.10;99.90;;;11.04;68.05;100232.59;5075074;28;20117;-75
2023/04/22 00:53:30;;;;;;;13.93;10.07;;;11.10;99.90;;;11.08;68.05;100235.72;5070960;28;20047;-75
2023/04/22 00:55:56;;;;;;;14.95;9.40;;;11.10;99.90;;;10.96;69.17;100238.38;5071339;28;20032;-75
2023/04/22 00:58:26;;;;;;;12.82;9.60;;;11.00;99.90;;;11.05;68.42;100228.81;5070591;28;20035;-75
2023/04/22 01:00:52;;;;;;;20.13;10.48;;;11.00;99.90;;;11.10;67.78;100222.66;5066383;28;20036;-75
2023/04/22 01:03:22;;;;;;;14.73;10.10;;;11.10;99.90;;;11.02;68.19;100228.47;5056170;28;20178;-75
2023/04/22 01:05:49;;;;;;;15.60;10.30;;;11.00;99.90;;;11.00;68.36;100225.94;5074660;28;20032;-75
2023/04/22 01:08:16;;;;;;;14.80;9.65;;;11.00;99.90;;;11.02;68.38;100226.53;5071052;28;20450;-75
2023/04/22 01:10:42;;;;;;;12.88;9.85;;;11.00;99.90;;;11.01;68.59;100232.25;5058199;28;20502;-76
2023/04/22 01:13:08;;;;;;;17.77;11.15;;;11.00;99.90;;;10.97;69.01;100229.13;5070052;28;20036;-75
2023/04/22 01:15:34;;;;;;;13.57;10.23;;;11.00;99.90;;;10.85;69.58;100236.41;5066750;28;20043;-76
2023/04/22 01:18:01;;;;;;;14.23;10.05;;;10.90;99.90;;;10.74;70.31;100241.59;5070163;28;20037;-76
2023/04/22 01:20:28;;;;;;;15.70;10.48;;;10.80;99.90;;;10.70;70.77;100240.38;5070596;28;20134;-76
2023/04/22 01:22:58;;;;;;;14.05;10.82;;;10.70;99.90;;;10.64;71.40;100227.66;5070046;28;20064;-75
2023/04/22 01:25:27;;;;;;;16.33;10.63;;;10.70;99.90;;;10.65;71.64;100245.69;5070512;28;20032;-76
2023/04/22 01:27:54;;;;;;;16.15;10.65;;;10.60;99.90;;;10.28;73.00;100248.31;5061436;28;20045;-76
2023/04/22 01:30:20;;;;;;;15.90;10.65;;;10.50;99.90;;;10.37;73.66;100252.44;5069447;28;20032;-76
2023/04/22 01:32:46;;;;;;;13.15;10.48;;;10.40;99.90;;;10.40;73.86;100259.34;5070017;28;20036;-76
2023/04/22 01:35:12;;;;;;;19.65;11.20;;;10.30;99.90;;;10.42;73.46;100258.09;5054199;28;20025;-76
2023/04/22 01:37:38;;;;;;;14.90;11.00;;;10.30;99.90;;;10.35;74.46;100252.66;5052532;28;20404;-76
2023/04/22 01:40:06;;;;;;;17.33;11.98;;;10.20;99.90;;;10.14;75.76;100243.00;5068951;28;20025;-75
2023/04/22 01:42:32;;;;;;;16.88;11.23;;;10.10;99.90;;;10.03;76.85;100246.47;5052333;28;20130;-75
2023/04/22 01:44:58;;;;;;;14.68;11.07;;;10.00;99.90;;;10.04;76.92;100248.13;5051769;28;20071;-75
2023/04/22 01:47:24;;;;;;;15.32;11.43;;;9.90;99.90;;;10.02;76.95;100247.50;5069898;28;20115;-75
2023/04/22 01:49:50;;;;;;;15.73;11.40;;;9.90;99.90;;;10.00;77.82;100249.63;5055150;28;20127;-75
2023/04/22 01:52:18;;;;;;;;;;;9.90;99.90;;;9.91;78.33;100247.19;5060422;28;20037;-75
2023/04/22 01:54:44;;;;;;;14.27;11.13;;;9.90;99.90;;;9.81;79.41;100248.75;5055585;28;19917;-75
2023/04/22 01:57:13;;;;;;;15.63;11.50;;;9.80;99.90;;;9.83;79.57;100250.19;5065405;28;20086;-75
2023/04/22 01:59:39;;;;;;;19.60;11.60;;;9.70;99.90;;;9.81;79.87;100255.00;5049664;28;20397;-75
2023/04/22 02:02:05;;;;;;;15.77;12.05;;;9.70;99.90;;;9.81;80.05;100252.28;5068228;28;20046;-75
2023/04/22 02:04:31;;;;;;;16.58;11.48;;;9.60;99.90;;;9.81;79.73;100254.19;5069482;28;20020;-75
2023/04/22 02:06:57;;;;;;;17.85;11.43;;;9.60;99.90;;;9.82;79.92;100253.13;5071751;28;20037;-75
2023/04/22 02:09:22;;;;;;;19.27;12.43;;;9.50;99.90;;;9.72;80.68;100245.44;5065509;28;20169;-76
2023/04/22 02:11:48;;;;;;;15.63;12.02;;;9.50;99.90;;;9.61;81.27;100245.13;5070092;28;20036;-75
2023/04/22 02:14:14;;;;;;;17.77;11.95;;;9.40;99.90;;;9.45;82.65;100249.22;5052884;28;20515;-75
2023/04/22 02:16:41;;;;;;;19.48;12.45;;;9.30;99.90;;;9.43;83.05;100251.31;5065064;28;20047;-76
2023/04/22 02:19:07;;;;;;;18.20;13.05;;;9.20;99.90;;;9.38;84.27;100242.94;5066908;28;20090;-75
2023/04/22 02:21:33;;;;;;;19.38;12.68;;;9.20;99.90;;;9.32;84.71;100241.09;5065612;28;20068;-75
2023/04/22 02:23:59;;;;;;;16.67;13.30;;;9.10;99.90;;;9.21;85.66;100234.47;5069685;28;20052;-75
2023/04/22 02:26:27;;;;;;;18.80;12.45;;;9.10;99.90;;;9.13;86.37;100230.09;5069895;28;20037;-75
2023/04/22 02:28:53;;;;;;;17.15;13.23;;;9.00;99.90;;;9.10;87.18;100233.25;5067757;28;20097;-76
2023/04/22 02:31:19;;;;;;;18.90;12.80;;;9.00;99.90;;;9.05;88.03;100238.53;5068846;28;20036;-75
2023/04/22 02:33:44;;;;;;;15.35;12.55;;;8.90;99.90;;;9.00;88.33;100235.63;5069648;28;20036;-75
2023/04/22 02:36:10;;;;;;;19.95;12.73;;;8.90;99.90;;;9.01;87.87;100227.22;5069602;28;20373;-75
2023/04/22 02:38:37;;;;;;;17.42;12.65;;;8.90;99.90;;;8.97;89.00;100228.72;5068302;28;20037;-76
2023/04/22 02:41:03;;;;;;;17.15;12.75;;;8.90;99.90;;;8.87;90.10;100214.75;5064127;28;20036;-76
2023/04/22 02:43:29;;;;;;;17.20;13.80;;;8.70;99.90;;;8.68;91.29;100216.50;5060137;28;20374;-75
2023/04/22 02:45:55;;;;;;;20.13;13.90;;;8.60;99.90;;;8.56;92.49;100219.88;5057035;28;20032;-75
2023/04/22 02:48:21;;;;;;;20.90;13.48;;;8.50;99.90;;;8.48;93.24;100212.75;5057606;28;20040;-75
2023/04/22 02:50:47;;;;;;;17.65;13.07;;;8.40;99.90;;;8.57;93.36;100223.44;5060413;28;20029;-75
2023/04/22 02:53:12;;;;;;;17.90;13.55;;;8.40;99.90;;;8.51;93.57;100210.72;5069521;28;20118;-75
2023/04/22 02:55:40;;;;;;;18.92;13.07;;;8.40;99.90;;;8.64;93.25;100226.97;5054875;28;20037;-76
2023/04/22 02:58:07;;;;;;;;;;;8.50;99.90;;;8.62;93.62;100218.19;5053990;28;20121;-76
2023/04/22 03:00:34;;;;;;;20.35;13.98;;;8.40;99.90;;;8.40;93.89;100213.00;5064283;28;20274;-75
2023/04/22 03:03:00;;;;;;;17.73;13.18;;;8.30;99.90;;;8.38;94.80;100223.25;5065626;28;20029;-75
2023/04/22 03:05:29;;;;;;;19.20;13.95;;;8.30;99.90;;;8.30;96.04;100220.75;5064625;28;20033;-75
2023/04/22 03:07:55;;;;;;;18.02;13.98;;;8.30;99.90;;;8.24;97.07;100216.19;5069493;28;20060;-75
2023/04/22 03:10:20;;;;;;;18.00;13.40;;;8.20;99.90;;;8.17;97.48;100214.28;5069605;28;20040;-75
2023/04/22 03:12:47;;;;;;;19.88;14.52;;;8.10;99.90;;;8.16;98.03;100209.09;5051164;28;20053;-75
2023/04/22 03:15:12;;;;;;;18.00;13.55;;;8.10;99.90;;;8.18;97.63;100213.25;5076696;28;20444;-75
2023/04/22 03:17:38;;;;;;;18.15;14.25;;;8.00;99.90;;;8.16;97.65;100209.09;5069463;28;20051;-75
2023/04/22 03:20:09;;;;;;;21.48;14.40;;;8.00;99.90;;;8.12;98.45;100214.09;5034904;28;20040;-75
2023/04/22 03:22:35;;;;;;;18.85;13.85;;;7.90;99.90;;;8.15;98.00;100224.53;5068254;28;20147;-75
2023/04/22 03:25:03;;;;;;;17.40;13.40;;;7.90;99.90;;;8.27;97.17;100213.03;5071633;28;20021;-75
2023/04/22 03:27:28;;;;;;;18.15;13.38;;;8.00;99.90;;;8.32;96.44;100210.50;5050471;28;20294;-75
2023/04/22 03:29:54;;;;;;;22.05;13.50;;;8.10;99.90;;;8.37;95.84;100209.88;5056532;28;20033;-75
2023/04/22 03:32:20;;;;;;;15.32;12.52;;;8.20;99.90;;;8.36;95.41;100206.31;5067838;28;20385;-76
2023/04/22 03:34:51;;;;;;;18.20;13.93;;;8.20;99.90;;;8.33;95.45;100204.03;5059917;28;20036;-76
2023/04/22 03:37:18;;;;;;;19.48;13.10;;;8.10;99.90;;;8.22;96.17;100205.50;5054414;28;20055;-76
2023/04/22 03:39:44;;;;;;;21.80;13.32;;;8.00;99.90;;;8.13;97.30;100199.47;5054215;28;20029;-76
2023/04/22 03:42:12;;;;;;;21.02;13.60;;;7.90;99.90;;;8.03;98.42;100199.06;5056351;28;20048;-76
2023/04/22 03:44:41;;;;;;;19.55;14.00;;;7.80;99.90;;;7.88;99.22;100202.00;5071331;28;20035;-76
2023/04/22 03:47:07;;;;;;;21.55;14.95;;;7.70;99.90;;;7.71;100.00;100199.72;5068550;28;20128;-76
2023/04/22 03:49:40;;;;;;;19.27;14.48;;;7.60;99.90;;;7.61;100.00;100207.44;5068927;28;20037;-76
2023/04/22 03:52:06;;;;;;;23.70;14.77;;;7.50;99.90;;;7.55;100.00;100202.81;5058227;28;20033;-76
2023/04/22 03:54:34;;;;;;;20.63;15.60;;;7.50;99.90;;;7.65;100.00;100207.84;5068126;28;20033;-77
2023/04/22 03:57:00;;;;;;;21.20;15.18;;;7.50;99.90;;;7.68;100.00;100204.72;5061281;28;20070;-76
2023/04/22 03:59:26;;;;;;;20.33;14.85;;;7.60;99.90;;;7.82;100.00;100203.69;5062709;28;20341;-76
2023/04/22 04:01:52;;;;;;;20.20;14.40;;;7.70;99.90;;;7.77;100.00;100201.59;5053835;28;20113;-77
2023/04/22 04:04:22;;;;;;;22.58;15.38;;;7.80;99.90;;;7.77;100.00;100200.75;5060898;28;20033;-77
2023/04/22 04:06:53;;;;;;;22.90;15.60;;;7.80;99.90;;;7.81;100.00;100198.44;5076800;28;20103;-76
2023/04/22 04:09:18;;;;;;;20.92;16.08;;;7.80;99.90;;;7.87;100.00;100200.34;5056319;28;20036;-76
2023/04/22 04:11:45;;;;;;;21.05;15.75;;;7.90;99.90;;;7.88;100.00;100202.00;5068523;28;20570;-76
2023/04/22 04:14:11;;;;;;;21.38;15.27;;;7.90;99.90;;;7.97;100.00;100208.06;5056419;28;20029;-76
2023/04/22 04:16:44;;;;;;;22.98;15.70;;;7.90;99.90;;;8.09;100.00;100211.81;5070605;28;20052;-76
2023/04/22 04:19:15;;;;;;;20.10;14.80;;;7.90;99.90;;;8.06;100.00;100202.19;5070272;28;20033;-77
2023/04/22 04:21:42;;;;;;;21.48;15.77;;;8.00;99.90;;;7.74;100.00;100146.88;5060823;28;20044;-77
2023/04/22 04:24:09;;;;;;;20.15;16.17;;;8.00;99.90;;;8.21;100.00;100212.00;5067342;28;20043;-76
2023/04/22 04:26:40;;;;;;;20.10;15.27;;;8.10;99.90;;;8.21;100.00;100199.22;5061526;28;20037;-76
2023/04/22 04:29:12;;;;;;;21.05;15.60;;;8.10;99.90;;;8.26;100.00;100200.50;5066967;28;20082;-76
2023/04/22 04:31:40;;;;;;;19.50;14.82;;;8.10;99.90;;;8.27;100.00;100196.72;5070330;28;20044;-76
2023/04/22 04:34:07;;;;;;;21.02;15.70;;;8.10;99.90;;;8.25;100.00;100196.94;5060438;28;20025;-76
2023/04/22 04:36:35;;;;;;;23.05;15.63;;;8.00;99.90;;;8.25;100.00;100205.09;5065899;28;20056;-77
2023/04/22 04:39:11;;;;;;;21.95;14.85;;;8.00;99.90;;;8.29;100.00;100200.06;5068920;28;20107;-78
2023/04/22 04:41:37;;;;;;;25.02;16.52;;;8.00;99.90;;;8.27;100.00;100194.03;5069326;28;20035;-78
2023/04/22 04:44:05;;;;;;;22.33;14.63;;;8.00;99.90;;;8.18;100.00;100177.91;5046079;28;20041;-77
2023/04/22 04:46:36;;;;;;;19.27;15.30;;;8.10;99.90;;;8.33;100.00;100193.16;5068271;28;20496;-76
2023/04/22 04:49:03;;;;;;;19.77;13.60;;;8.20;99.90;;;8.54;100.00;100199.41;5061379;28;20032;-77
2023/04/22 04:51:32;;;;;;;20.65;15.00;;;8.30;99.90;;;8.67;100.00;100193.09;5059607;28;20619;-77
2023/04/22 04:53:59;;;;;;;17.13;13.77;;;8.40;99.90;;;8.76;100.00;100192.63;5070036;28;20041;-77
2023/04/22 04:56:30;;;;;;;21.25;14.15;;;8.50;99.90;;;8.90;100.00;100198.84;5064650;28;20027;-78
2023/04/22 04:58:57;;;;;;;20.83;14.55;;;8.60;99.90;;;8.98;98.33;100195.03;5068692;28;20028;-78
2023/04/22 05:01:25;;;;;;;18.52;13.63;;;8.70;99.90;;;9.15;97.33;100192.66;5068896;28;20119;-78
2023/04/22 05:03:52;;;;;;;21.20;13.52;;;8.80;99.90;;;9.24;96.75;100195.91;5064485;28;20028;-78
2023/04/22 05:06:20;;;;;;;20.30;14.27;;;8.90;99.90;;;9.32;96.00;100192.94;5070063;28;20033;-79
2023/04/22 05:08:50;;;;;;;19.15;14.07;;;9.10;99.90;;;9.43;96.81;100199.59;5072420;28;20035;-78
2023/04/22 05:11:17;;;;;;;19.80;13.82;;;9.30;99.90;;;9.49;97.52;100195.13;5068803;28;20032;-77
2023/04/22 05:13:48;;;;;;;16.48;13.30;;;9.40;99.90;;;9.62;96.57;100194.19;5037449;28;20488;-77
2023/04/22 05:16:20;;;;;;;20.48;13.60;;;9.60;99.90;;;9.79;95.95;100194.47;5058372;28;20472;-77
2023/04/22 05:18:46;;;;;;;18.33;13.07;;;9.80;99.90;;;9.86;95.02;100192.53;5070504;28;20085;-77
2023/04/22 05:21:14;;;;;;;20.17;13.20;;;9.90;99.90;;;10.08;93.22;100186.69;5055411;28;20086;-76
2023/04/22 05:23:42;;;;;;;18.10;12.38;;;10.10;99.90;;;10.20;91.39;100190.31;5055888;28;20393;-76
2023/04/22 05:26:07;;;;;;;19.55;12.38;;;10.30;99.90;;;10.32;90.60;100187.69;5068747;28;20045;-77
2023/04/22 05:28:35;;;;;;;16.50;12.73;;;10.40;99.90;;;10.56;90.18;100187.88;5062808;28;20038;-78
2023/04/22 05:31:01;;;;;;;16.15;12.35;;;10.50;99.90;;;10.76;89.15;100190.34;5056570;28;20033;-78
2023/04/22 05:33:28;;;;;;;19.50;12.48;;;10.80;99.90;;;10.82;86.17;100185.88;5067921;28;20059;-78
2023/04/22 05:35:55;;;;;;;17.20;11.40;;;10.80;99.90;;;10.79;85.13;100178.97;5052931;28;20401;-78
2023/04/22 05:38:20;;;;;;;16.52;11.45;;;10.90;99.90;;;10.78;85.58;100190.94;5056339;28;20033;-77
2023/04/22 05:40:47;;;;;;;14.65;11.80;;;10.90;99.90;;;10.93;84.68;100190.53;5051151;28;20035;-78
2023/04/22 05:43:15;;;;;;;18.95;11.55;;;11.00;99.90;;;10.99;84.42;100190.69;5054903;28;20028;-77
2023/04/22 05:45:44;;;;;;;17.15;11.43;;;11.10;99.90;;;11.08;82.91;100192.03;5070068;28;20045;-79
2023/04/22 05:48:12;;;;;;;13.77;10.93;;;11.10;99.90;;;11.25;82.83;100200.41;5052236;28;20037;-79
2023/04/22 05:50:46;;;;;;;17.85;11.20;;;11.20;99.90;;;11.33;83.79;100202.78;5066401;28;20504;-77
2023/04/22 05:53:12;;;;;;;16.23;11.07;;;11.20;99.90;;;11.27;82.87;100186.50;5068425;28;20033;-76
2023/04/22 05:55:38;;;;;;;15.50;10.98;;;11.20;99.90;;;11.34;83.29;100187.25;5054332;28;20029;-76
2023/04/22 05:58:06;;;;;;;16.90;10.80;;;11.20;99.90;;;11.30;82.35;100186.88;5058887;28;20113;-76
2023/04/22 06:00:46;;;;;;;17.92;11.57;;;11.30;99.90;;;11.54;83.12;100184.22;5051669;28;20036;-76
2023/04/22 06:03:30;;;;;;;15.38;10.48;;;11.40;99.90;;;11.65;82.20;100177.09;5068129;28;20047;-77
2023/04/22 06:05:56;;;;;;;17.23;11.02;;;11.50;99.90;;;11.74;82.53;100172.13;5069681;28;20032;-80
2023/04/22 06:08:22;;;;;;;14.18;10.90;;;11.70;99.90;;;11.99;81.30;100184.75;5060937;28;20554;-82
2023/04/22 06:10:49;;;;;;;14.77;10.87;;;11.90;99.90;;;12.06;79.67;100180.00;5067542;28;20518;-78
2023/04/22 06:13:16;;;;;;;14.50;10.18;;;12.00;99.90;;;12.17;78.56;100187.34;5079378;28;20300;-76
2023/04/22 06:15:41;;;;;;;15.52;10.32;;;12.10;99.90;;;12.32;78.35;100178.66;5061144;28;20029;-77
2023/04/22 06:18:07;;;;;;;17.63;10.57;;;12.30;99.90;;;12.27;77.58;100169.53;5066689;28;20066;-77
2023/04/22 06:20:34;;;;;;;15.73;10.13;;;12.30;99.90;;;12.47;78.66;100182.81;5063137;28;20395;-76
2023/04/22 06:23:01;;;;;;;13.23;10.10;;;12.40;99.90;;;12.70;78.01;100179.19;5060327;28;20396;-78
2023/04/22 06:25:26;;;;;;;14.85;9.48;;;12.60;99.90;;;12.80;75.61;100171.19;5060484;28;20046;-77
2023/04/22 06:27:52;;;;;;;13.90;9.77;;;12.70;99.90;;;12.69;74.44;100179.44;5068576;28;20843;-77
2023/04/22 06:30:20;;;;;;;16.83;10.18;;;12.80;99.90;;;12.66;74.38;100172.53;5055186;28;20094;-78
2023/04/22 06:32:46;;;;;;;13.25;9.55;;;12.70;99.90;;;12.71;74.33;100172.63;5057294;28;20045;-79
2023/04/22 06:35:12;;;;;;;16.35;9.85;;;12.70;99.90;;;13.11;74.26;100186.53;5053808;28;20040;-76
2023/04/22 06:37:38;;;;;;;15.68;9.95;;;12.90;99.90;;;13.34;72.58;100174.63;5060353;28;20094;-78
2023/04/22 06:40:07;;;;;;;12.65;9.23;;;13.20;99.90;;;13.52;71.70;100179.06;5058519;28;20043;-78
2023/04/22 06:42:58;;;;;;;13.80;9.98;;;13.40;99.90;;;13.71;72.80;100154.16;5049023;28;20048;-76
2023/04/22 06:45:39;;;;;;;14.40;10.07;;;13.80;99.90;;;13.71;70.44;100151.44;5066799;28;20044;-77
2023/04/22 06:48:17;;;;;;;15.88;10.50;;;13.90;99.90;;;13.87;70.36;100172.53;5053228;28;20033;-76
2023/04/22 06:51:02;;;;;;;17.45;10.80;;;14.00;99.90;;;13.95;71.31;100177.59;5064339;28;20245;-76
2023/04/22 06:53:30;;;;;;;16.88;10.02;;;14.10;99.90;;;13.95;69.70;100168.53;5058710;28;20503;-76
2023/04/22 06:55:56;;;;;;;15.30;9.82;;;14.10;99.90;;;14.09;70.16;100172.56;5058928;28;20093;-75
2023/04/22 06:58:22;;;;;;;13.15;9.65;;;14.20;99.90;;;14.21;69.62;100167.00;5061178;28;20094;-76
2023/04/22 07:00:48;;;;;;;16.30;9.57;;;14.30;99.90;;;14.43;69.14;100157.94;5052007;28;20033;-76
2023/04/22 07:03:14;;;;;;;14.93;9.55;;;14.50;99.90;;;14.65;68.82;100159.88;5072098;28;20043;-77
2023/04/22 07:05:40;;;;;;;14.07;9.82;;;14.70;99.90;;;14.69;67.93;100150.03;5052291;28;20037;-75
2023/04/22 07:08:07;;;;;;;12.82;9.07;;;14.80;99.90;;;14.99;69.16;100147.94;5071770;28;20548;-76
2023/04/22 07:10:33;;;;;;;14.60;9.25;;;15.00;99.90;;;15.08;65.87;100141.69;5055697;28;20128;-75
2023/04/22 07:13:23;;;;;;;14.48;9.38;;;15.20;99.90;;;15.16;66.15;100142.31;5059933;28;20039;-75
2023/04/22 07:15:49;;;;;;;12.75;9.07;;;15.30;99.90;;;15.37;65.98;100148.84;5069620;28;20036;-75
2023/04/22 07:18:15;;;;;;;14.40;8.75;;;15.40;99.90;;;15.71;64.85;100143.06;5069914;28;20040;-73
2023/04/22 07:20:40;;;;;;;11.35;7.75;;;15.60;99.90;;;16.06;63.72;100138.94;5059688;28;20036;-74
2023/04/22 07:23:06;;;;;;;14.50;7.38;;;15.90;99.90;;;16.06;60.90;100127.94;5058275;28;20039;-75
2023/04/22 07:25:32;;;;;;;13.15;8.05;;;16.10;99.90;;;16.29;61.72;100149.78;5073657;28;20047;-75
2023/04/22 07:27:57;;;;;;;11.50;7.68;;;16.30;99.90;;;16.45;61.72;100145.19;5057490;28;21442;-75
2023/04/22 07:30:23;;;;;;;12.88;7.68;;;16.40;99.90;;;16.55;60.80;100142.44;5059149;28;20041;-73
2023/04/22 07:32:49;;;;;;;10.88;7.18;;;16.60;99.90;;;16.68;59.94;100130.09;5071320;28;20044;-73
2023/04/22 07:35:15;;;;;;;12.75;6.85;;;16.70;99.90;;;16.67;58.63;100125.69;5043473;28;20040;-73
2023/04/22 07:37:40;;;;;;;10.93;7.00;;;16.80;99.90;;;16.68;58.21;100119.94;5072856;28;20040;-78
2023/04/22 07:40:10;;;;;;;14.52;7.18;;;16.90;99.90;;;16.81;58.36;100129.63;5070001;28;20033;-75
2023/04/22 07:42:37;;;;;;;12.70;6.90;;;16.90;99.90;;;17.07;59.40;100139.88;5068022;28;20051;-74
2023/04/22 07:45:04;;;;;;;10.70;6.63;;;17.00;99.90;;;17.22;58.38;100126.13;5058992;28;20111;-83
2023/04/22 07:47:30;;;;;;;10.20;6.63;;;17.20;99.90;;;17.44;58.07;100121.44;5072603;28;20033;-74
2023/04/22 07:49:55;;;;;;;10.25;6.35;;;17.30;99.90;;;17.80;58.65;100130.53;5070402;28;20033;-74
2023/04/22 07:52:21;;;;;;;9.63;6.50;;;17.60;99.90;;;17.88;59.29;100131.06;5072420;28;20036;-75
2023/04/22 07:54:47;;;;;;;9.20;5.57;;;17.70;99.90;;;18.08;59.51;100142.09;5072369;28;20044;-75
2023/04/22 07:57:12;;;;;;;8.18;4.80;;;17.90;99.90;;;18.29;55.51;100119.94;5072056;28;20043;-75
2023/04/22 07:59:38;;;;;;;8.57;4.53;;;18.20;99.90;;;18.10;55.96;100128.03;5070995;28;20044;-75
2023/04/22 08:02:04;;;;;;;8.95;4.53;;;18.20;99.90;;;18.37;53.97;100121.31;5072489;28;20438;-75
2023/04/22 08:04:29;;;;;;;7.65;4.50;;;18.30;99.90;;;18.37;53.59;100111.09;5059326;28;20029;-75
2023/04/22 08:06:56;;;;;;;7.45;4.00;;;18.40;99.90;;;18.61;53.60;100120.66;5070126;28;20037;-76
2023/04/22 08:09:22;;;;;;;5.97;3.40;;;18.60;99.90;;;18.54;51.62;100104.38;5071809;28;20032;-78
2023/04/22 08:11:47;;;;;;;7.45;3.72;;;18.70;99.80;;;18.47;51.85;100101.13;5073036;28;20064;-80
2023/04/22 08:14:13;;;;;;;8.52;3.38;;;18.60;98.90;;;18.57;52.25;100114.88;5078504;28;20025;-75
2023/04/22 08:16:41;;;;;;;7.68;3.58;;;18.70;99.20;;;18.28;49.60;100101.75;5085558;28;20035;-79
2023/04/22 08:19:07;;;;;;;5.72;3.42;;;18.60;96.80;;;18.67;50.32;100105.72;5085924;28;20051;-77
2023/04/22 08:21:32;;;;;;;7.68;3.55;;;18.70;97.70;;;18.76;49.26;100097.66;5081968;28;20036;-78
2023/04/22 08:23:58;;;;;;;9.88;3.50;;;18.80;96.70;;;19.06;48.44;100085.56;5080911;28;20170;-76
2023/04/22 08:26:24;;;;;;;8.25;3.80;;;19.10;96.00;;;19.30;46.82;100084.84;5072221;28;20323;-76
2023/04/22 08:28:50;;;;;;;5.65;2.97;;;19.40;94.70;;;19.32;47.34;100096.44;5070291;28;20081;-78
2023/04/22 08:31:16;;;;;;;6.82;3.28;;;19.50;94.70;;;19.26;46.72;100090.16;5063905;28;20033;-76
2023/04/22 08:33:42;;;;;;;8.40;3.80;;;19.50;94.10;;;19.53;48.60;100110.09;5069269;28;20029;-75
2023/04/22 08:36:08;;;;;;;9.18;3.85;;;19.60;95.30;;;19.50;48.27;100096.84;5048478;28;20061;-77
2023/04/22 08:38:34;;;;;;;7.38;3.60;;;19.70;95.10;;;19.44;48.21;100093.28;5069754;28;20078;-76
2023/04/22 08:41:04;;;;;;;9.27;3.70;;;19.60;94.50;;;19.40;48.16;100083.94;5063883;28;20028;-76
2023/04/22 08:43:31;;;;;;;6.03;3.70;;;19.60;94.80;;;19.44;46.83;100086.97;5064692;28;20033;-76
2023/04/22 08:45:57;;;;;;;7.82;3.70;;;19.60;93.50;;;19.61;47.46;100097.59;5066297;28;20116;-78
2023/04/22 08:48:24;;;;;;;7.15;3.72;;;19.60;94.10;;;19.67;46.84;100085.34;5068699;28;20135;-77
2023/04/22 08:50:50;;;;;;;5.07;3.50;;;19.70;93.80;;;19.88;47.66;100088.72;5071072;28;20502;-77
2023/04/22 08:53:16;;;;;;;7.43;3.60;;;19.90;94.30;;;19.85;46.43;100089.31;5071427;28;20036;-77
2023/04/22 08:55:44;;;;;;;6.47;3.45;;;19.90;93.40;;;19.84;46.51;100080.19;5071788;28;20040;-78
2023/04/22 08:58:11;;;;;;;7.18;3.47;;;20.00;93.30;;;19.89;45.70;100086.78;5072233;28;20193;-84
2023/04/22 09:00:41;;;;;;;6.32;3.60;;;20.00;92.60;;;20.00;45.64;100076.47;5070215;28;20160;-78
2023/04/22 09:03:07;;;;;;;7.13;3.38;;;20.00;92.70;;;20.21;46.68;100086.19;5056463;28;20037;-79
2023/04/22 09:05:36;;;;;;;7.28;3.60;;;20.20;93.10;;;20.53;44.88;100075.50;5075323;28;20060;-75
2023/04/22 09:08:02;;;;;;;6.30;3.67;;;20.50;91.80;;;20.73;44.16;100062.50;5070810;28;20044;-78
2023/04/22 09:10:29;;;;;;;10.07;3.70;;;20.80;91.40;;;20.63;43.81;100058.75;5071437;28;20232;-78
2023/04/22 09:12:57;;;;;;;5.57;3.58;;;20.80;90.80;;;20.65;45.18;100070.38;5068942;28;20043;-79
2023/04/22 09:15:24;;;;;;;6.13;3.50;;;20.80;91.60;;;20.59;43.84;100051.34;5072565;28;20052;-80
2023/04/22 09:17:51;;;;;;;14.15;4.47;;;20.80;90.70;;;21.02;44.74;100056.84;5070391;28;20063;-79
2023/04/22 09:20:18;;;;;;;6.68;3.40;;;21.00;91.50;;;21.31;43.52;100058.56;5071310;28;20492;-77
2023/04/22 09:22:47;;;;;;;9.88;4.47;;;;;;;21.66;43.36;100063.81;5055989;28;20429;-77
2023/04/22 09:25:17;;;;;;;18.15;6.07;;;;;;;22.18;44.03;100065.59;5083439;28;20068;-77
2023/04/22 09:27:46;;;;;;;7.07;3.60;;;;;;;22.12;41.96;100059.31;5062547;28;20053;-78
2023/04/22 09:30:13;;;;;;;8.50;3.00;;;;;;;21.59;40.16;100044.75;5070359;28;20043;-77
2023/04/22 09:32:39;;;;;;;6.47;3.10;;;;;;;21.46;40.29;100037.22;5070876;28;20032;-77
2023/04/22 09:35:06;;;;;;;6.57;2.92;;;;;;;21.50;40.76;100038.28;5071768;28;20396;-76
2023/04/22 09:37:32;;;;;;;8.57;3.28;;;21.20;90.30;;;21.74;41.76;100046.44;5051927;28;20131;-81
2023/04/22 09:39:58;;;;;;;8.30;3.65;;;;;;;22.61;43.40;100053.31;5070963;28;20048;-78
2023/04/22 09:42:24;;;;;;;7.45;4.25;;;;;;;23.02;43.89;100062.66;5079407;28;20326;-80
2023/04/22 09:44:51;;;;;;;8.02;3.35;;;;;;;22.75;38.73;100020.72;5070674;28;20036;-78
2023/04/22 09:47:25;;;;;;;6.82;3.03;;;;;;;22.17;39.42;100027.84;5059629;28;20393;-77
2023/04/22 09:49:51;;;;;;;6.97;3.08;;;;;;;22.66;42.08;100044.84;5068727;28;20051;-79
2023/04/22 09:52:25;;;;;;;6.35;3.10;;;;;;;22.55;41.49;100039.53;5070496;28;20076;-77
2023/04/22 09:54:53;;;;;;;6.93;2.90;;;;;;;23.07;37.95;100018.81;5071827;28;20035;-77
2023/04/22 09:57:20;;;;;;;4.80;3.10;;;;;;;23.38;39.32;100025.59;5071330;28;20174;-76
2023/04/22 09:59:48;;;;;;;5.57;2.92;;;;;;;23.67;38.94;100008.41;5070450;28;20044;-77
2023/04/22 10:02:14;;;;;;;6.05;2.78;;;;;;;23.72;38.50;100012.19;5070168;28;20097;-79
2023/04/22 10:04:41;;;;;;;5.97;2.85;;;;;;;23.31;37.84;99997.41;5071188;28;20500;-78
2023/04/22 10:07:08;;;;;;;6.65;2.95;;;;;;;23.51;38.83;100005.22;5061856;28;20036;-79
2023/04/22 10:09:34;;;;;;;5.55;3.03;;;;;;;24.09;35.75;99998.88;5070951;28;20032;-77
2023/04/22 10:12:00;;;;;;;5.22;3.08;;;;;;;23.91;36.42;99992.41;5057046;28;20048;-77
2023/04/22 10:14:27;;;;;;;6.38;2.80;;;;;;;24.51;35.08;99992.88;5063377;28;20127;-76